Time;durP1;ratioP1;P1;durP2;ratioP2;P2;SDS_P1;SDS_P2;PMS_P1;PMS_P2;Temp;Humidity;BMP_temperature;BMP_pressure;BME280_temperature;BME280_humidity;BME280_pressure;Samples;Min_cycle;Max_cycle;Signal;HPM_P1;HPM_P2
2022/08/15 00:00:13;;;;;;;19.08;15.68;;;;;;;;;;5083501;28;20048;-77
2022/08/15 00:02:47;;;;;;;16.88;14.75;;;;;;;;;;5084302;28;20142;-78
2022/08/15 00:05:15;;;;;;;21.40;16.13;;;;;;;;;;5083782;28;20088;-76
2022/08/15 00:07:41;;;;;;;15.95;14.05;;;;;;;;;;5085184;28;20020;-76
2022/08/15 00:10:08;;;;;;;21.30;18.35;;;;;;;;;;5090247;28;20032;-78
2022/08/15 00:12:35;;;;;;;30.10;23.83;;;;;;;;;;5090357;28;20018;-76
2022/08/15 00:15:02;;;;;;;14.50;12.20;;;;;;;;;;5085691;28;20486;-76
2022/08/15 00:17:29;;;;;;;18.17;12.45;;;;;;;;;;5084406;28;20020;-77
2022/08/15 00:19:56;;;;;;;19.88;13.93;;;;;;;;;;5083926;28;20023;-77
2022/08/15 00:22:22;;;;;;;18.88;14.25;;;;;;;;;;5084579;28;20048;-76
2022/08/15 00:24:49;;;;;;;17.08;14.55;;;;;;;;;;5082429;28;20032;-76
2022/08/15 00:27:15;;;;;;;16.63;14.38;;;;;;;;;;5083593;28;20024;-77
2022/08/15 00:29:41;;;;;;;18.77;14.98;;;;;;;;;;5083686;28;20387;-75
2022/08/15 00:32:12;;;;;;;16.75;14.52;;;;;;;;;;5108151;28;20032;-76
2022/08/15 00:34:38;;;;;;;17.13;12.43;;;;;;;;;;5084014;28;20044;-78
2022/08/15 00:37:05;;;;;;;13.45;12.00;;;;;;;;;;5088286;28;20494;-77
2022/08/15 00:39:31;;;;;;;19.50;14.27;;;;;;;;;;5090373;28;20105;-79
2022/08/15 00:42:00;;;;;;;16.98;14.20;;;;;;;;;;5089521;28;20620;-77
2022/08/15 00:44:46;;;;;;;19.38;13.77;;;;;;;;;;5092920;28;20109;-78
2022/08/15 00:47:13;;;;;;;17.17;14.50;;;;;;;;;;5091658;28;20032;-77
2022/08/15 00:49:40;;;;;;;17.08;13.35;;;;;;;;;;5093709;28;20513;-78
2022/08/15 00:52:10;;;;;;;14.13;12.63;;;;;;;;;;5089462;28;20028;-79
2022/08/15 00:54:58;;;;;;;17.13;14.68;;;;;;;;;;5093642;28;20036;-79
2022/08/15 00:57:33;;;;;;;16.20;12.05;;;;;;;;;;5094241;28;20066;-81
2022/08/15 01:00:01;;;;;;;30.27;14.05;;;;;;;;;;5092635;28;20069;-81
2022/08/15 01:02:29;;;;;;;17.08;12.65;;;;;;;;;;5120610;27;20055;-80
2022/08/15 01:04:55;;;;;;;17.58;13.00;;;;;;;;;;5116253;27;20028;-86
2022/08/15 01:07:22;;;;;;;18.30;12.88;;;;;;;;;;5090768;28;20031;-83
2022/08/15 01:09:49;;;;;;;17.45;12.18;;;;;;;;;;5087487;28;20100;-82
2022/08/15 01:12:19;;;;;;;14.23;11.73;;;;;;;;;;5089607;28;20360;-85
2022/08/15 01:14:49;;;;;;;47.13;35.30;;;;;;;;;;5089645;28;20028;-85
2022/08/15 01:17:16;;;;;;;16.08;12.98;;;;;;;;;;5087324;28;20047;-85
2022/08/15 01:19:42;;;;;;;19.27;14.52;;;;;;;;;;5089521;28;20154;-86
2022/08/15 01:22:11;;;;;;;15.60;13.13;;;;;;;;;;5088449;28;20164;-85
2022/08/15 01:24:37;;;;;;;14.90;13.20;;;;;;;;;;5090085;28;20056;-81
2022/08/15 01:27:04;;;;;;;13.20;11.13;;;;;;;;;;5092085;28;20035;-82
2022/08/15 01:29:30;;;;;;;15.15;12.38;;;;;;;;;;5089150;28;20027;-82
2022/08/15 01:31:56;;;;;;;13.90;12.57;;;;;;;;;;5092778;28;20016;-82
2022/08/15 01:34:22;;;;;;;19.00;11.27;;;;;;;;;;5114130;27;20035;-83
2022/08/15 01:36:49;;;;;;;12.48;10.98;;;;;;;;;;5091316;28;20024;-81
2022/08/15 01:39:19;;;;;;;14.85;11.85;;;;;;;;;;5091425;28;20035;-82
2022/08/15 01:42:00;;;;;;;15.35;13.70;;;;;;;;;;5088002;28;20142;-84
2022/08/15 01:44:38;;;;;;;16.65;11.52;;;;;;;;;;5115727;27;20039;-81
2022/08/15 01:47:07;;;;;;;19.85;12.82;;;;;;;;;;5089217;28;20487;-79
2022/08/15 01:49:39;;;;;;;13.45;12.05;;;;;;;;;;5112706;27;20918;-82
2022/08/15 01:52:05;;;;;;;17.23;12.30;;;;;;;;;;5088221;28;20020;-79
2022/08/15 01:54:37;;;;;;;16.10;12.52;;;;;;;;;;5087446;28;20028;-81
2022/08/15 01:57:03;;;;;;;14.63;11.95;;;;;;;;;;5111880;27;20022;-81
2022/08/15 01:59:29;;;;;;;14.07;12.25;;;;;;;;;;5092098;28;20102;-81
2022/08/15 02:02:00;;;;;;;20.20;12.93;;;;;;;;;;5117445;27;20161;-85
2022/08/15 02:04:28;;;;;;;12.77;10.30;;;;;;;;;;5087921;28;20112;-83
2022/08/15 02:06:59;;;;;;;13.68;11.30;;;;;;;;;;5086935;28;20043;-83
2022/08/15 02:09:26;;;;;;;12.52;11.15;;;;;;;;;;5087731;28;20024;-81
2022/08/15 02:11:52;;;;;;;14.90;11.88;;;;;;;;;;5086487;28;20026;-85
2022/08/15 02:14:20;;;;;;;17.08;13.38;;;;;;;;;;5086434;28;20020;-82
2022/08/15 02:16:46;;;;;;;14.05;11.90;;;;;;;;;;5086522;28;20051;-81
2022/08/15 02:19:13;;;;;;;14.00;12.38;;;;;;;;;;5087440;28;20443;-83
2022/08/15 02:21:40;;;;;;;17.50;11.05;;;;;;;;;;5086376;28;20526;-82
2022/08/15 02:24:11;;;;;;;14.60;11.73;;;;;;;;;;5086156;28;20509;-83
2022/08/15 02:26:38;;;;;;;13.13;10.88;;;;;;;;;;5085959;28;20032;-84
2022/08/15 02:29:05;;;;;;;12.57;10.82;;;;;;;;;;5086887;28;20072;-82
2022/08/15 02:31:31;;;;;;;13.40;11.38;;;;;;;;;;5086252;28;20020;-82
2022/08/15 02:33:58;;;;;;;14.52;11.85;;;;;;;;;;5109718;27;20020;-82
2022/08/15 02:36:25;;;;;;;13.85;11.68;;;;;;;;;;5084830;28;20020;-82
2022/08/15 02:38:52;;;;;;;13.07;11.57;;;;;;;;;;5086846;28;20020;-83
2022/08/15 02:41:24;;;;;;;14.48;12.55;;;;;;;;;;5111753;27;20016;-84
2022/08/15 02:43:50;;;;;;;15.60;12.45;;;;;;;;;;5087406;28;20032;-86
2022/08/15 02:46:16;;;;;;;17.73;14.15;;;;;;;;;;5086134;28;20550;-84
2022/08/15 02:48:43;;;;;;;22.40;14.27;;;;;;;;;;5086356;28;20063;-83
2022/08/15 02:51:11;;;;;;;21.35;15.52;;;;;;;;;;5086882;28;20056;-84
2022/08/15 02:53:37;;;;;;;20.73;14.85;;;;;;;;;;5087451;28;20102;-85
2022/08/15 02:56:06;;;;;;;25.75;17.00;;;;;;;;;;5092770;28;20016;-86
2022/08/15 02:58:33;;;;;;;20.23;16.52;;;;;;;;;;5111056;27;20016;-84
2022/08/15 03:00:59;;;;;;;18.70;16.67;;;;;;;;;;5092444;28;20031;-87
2022/08/15 03:03:26;;;;;;;22.17;17.58;;;;;;;;;;5084076;28;20032;-85
2022/08/15 03:05:52;;;;;;;22.85;20.48;;;;;;;;;;5092117;28;20031;-83
2022/08/15 03:08:20;;;;;;;20.23;18.13;;;;;;;;;;5078149;28;20074;-84
2022/08/15 03:10:47;;;;;;;20.63;18.50;;;;;;;;;;5125305;27;20088;-85
2022/08/15 03:13:14;;;;;;;26.52;20.08;;;;;;;;;;5092334;28;20431;-85
2022/08/15 03:15:43;;;;;;;24.77;19.38;;;;;;;;;;5085143;28;20055;-85
2022/08/15 03:18:10;;;;;;;24.25;20.23;;;;;;;;;;5088831;28;20020;-86
2022/08/15 03:20:36;;;;;;;22.98;19.30;;;;;;;;;;5092088;28;20051;-86
2022/08/15 03:23:04;;;;;;;21.30;18.80;;;;;;;;;;5088889;28;20540;-86
2022/08/15 03:25:32;;;;;;;20.85;18.55;;;;;;;;;;5091951;28;20016;-86
2022/08/15 03:27:58;;;;;;;21.92;19.52;;;;;;;;;;5124764;27;20051;-82
2022/08/15 03:30:24;;;;;;;25.98;18.75;;;;;;;;;;5091618;28;20024;-86
2022/08/15 03:32:50;;;;;;;28.70;18.92;;;;;;;;;;5091797;28;20012;-87
2022/08/15 03:35:16;;;;;;;25.33;18.67;;;;;;;;;;5091761;28;20556;-85
2022/08/15 03:37:43;;;;;;;27.42;20.20;;;;;;;;;;5090411;28;20027;-85
2022/08/15 03:40:09;;;;;;;23.42;20.48;;;;;;;;;;5124558;27;20028;-84
2022/08/15 03:42:35;;;;;;;24.00;18.98;;;;;;;;;;5091886;28;20028;-84
2022/08/15 03:45:02;;;;;;;25.73;18.02;;;;;;;;;;5091869;28;20016;-84
2022/08/15 03:47:29;;;;;;;26.25;20.67;;;;;;;;;;5091395;28;20020;-84
2022/08/15 03:49:55;;;;;;;25.63;19.00;;;;;;;;;;5090469;28;20099;-84
2022/08/15 03:52:22;;;;;;;27.63;19.50;;;;;;;;;;5124663;27;20048;-82
2022/08/15 03:54:48;;;;;;;24.52;18.60;;;;;;;;;;5091319;28;20024;-83
2022/08/15 03:57:14;;;;;;;29.95;21.23;;;;;;;;;;5090139;28;20020;-82
2022/08/15 03:59:40;;;;;;;24.55;20.73;;;;;;;;;;5090075;28;20103;-84
2022/08/15 04:02:09;;;;;;;26.95;21.33;;;;;;;;;;5124238;27;20433;-85
2022/08/15 04:04:35;;;;;;;26.50;21.33;;;;;;;;;;5084585;28;20098;-86
2022/08/15 04:07:03;;;;;;;28.67;22.30;;;;;;;;;;5090272;28;20032;-84
2022/08/15 04:09:29;;;;;;;33.03;23.42;;;461.00;2380.80;;;;;;5099291;28;20031;-85
2022/08/15 04:11:55;;;;;;;33.47;21.38;;;460.90;2380.80;;;;;;5097549;28;20028;-85
2022/08/15 04:14:21;;;;;;;29.95;20.88;;;460.90;2380.80;;;;;;5084065;28;20383;-84
2022/08/15 04:16:47;;;;;;;19.73;16.85;;;461.00;2380.80;;;;;;5091064;28;20024;-85
2022/08/15 04:19:15;;;;;;;24.55;16.92;;;461.00;2380.80;;;;;;5093960;28;20035;-86
2022/08/15 04:21:42;;;;;;;21.35;17.83;;;461.10;2380.80;;;;;;5095460;28;20098;-87
2022/08/15 04:24:08;;;;;;;17.60;14.70;;;460.90;2380.80;;;;;;5094592;28;20026;-85
2022/08/15 04:26:34;;;;;;;18.67;15.80;;;460.90;2380.80;;;;;;5095448;28;20091;-84
2022/08/15 04:29:01;;;;;;;33.25;16.02;;;461.00;2380.80;;;;;;5094010;28;20020;-84
2022/08/15 04:31:27;;;;;;;23.92;14.27;;;461.20;2380.80;;;;;;5094692;28;20024;-81
2022/08/15 04:33:53;;;;;;;26.27;18.48;;;461.40;2380.80;;;;;;5093312;28;20058;-81
2022/08/15 04:36:20;;;;;;;47.72;18.30;;;461.60;2380.80;;;;;;5094651;28;20059;-81
2022/08/15 04:38:47;;;;;;;23.67;17.40;;;461.70;2380.80;;;;;;5093622;28;20024;-82
2022/08/15 04:41:14;;;;;;;29.90;18.73;;;486.40;2380.80;;;;;;5083702;28;20048;-83
2022/08/15 04:43:41;;;;;;;25.08;18.88;;;486.70;2380.80;;;;;;5127970;27;20058;-82
2022/08/15 04:46:08;;;;;;;23.63;19.30;;;486.60;2380.80;;;;;;5092981;28;20099;-80
2022/08/15 04:48:33;;;;;;;31.65;17.40;;;486.60;2380.80;;;;;;5079954;28;20055;-81
2022/08/15 04:51:00;;;;;;;25.17;17.40;;;;;;;;;;5093469;28;20055;-81
2022/08/15 04:53:28;;;;;;;25.15;18.65;;;;;;;;;;5085197;28;20019;-81
2022/08/15 04:55:54;;;;;;;22.55;17.25;;;;;;;;;;5127717;27;20051;-81
2022/08/15 04:58:21;;;;;;;28.30;19.08;;;;;;;;;;5094004;28;20047;-82
2022/08/15 05:00:54;;;;;;;30.50;19.48;;;;;;;;;;5090277;28;20375;-85
2022/08/15 05:03:20;;;;;;;28.27;19.35;;;;;;;;;;5090776;28;20032;-83
2022/08/15 05:05:48;;;;;;;28.00;20.30;;;;;;;;;;5094936;28;20228;-82
2022/08/15 05:08:15;;;;;;;25.95;20.15;;;;;;;;;;5094118;28;20471;-80
2022/08/15 05:10:41;;;;;;;24.13;18.48;;;;;;;;;;5094301;28;20020;-80
2022/08/15 05:13:15;;;;;;;31.80;19.55;;;;;;;;;;5093053;28;20552;-80
2022/08/15 05:15:42;;;;;;;21.67;18.50;;;;;;;;;;5087219;28;20032;-82
2022/08/15 05:18:08;;;;;;;21.85;18.17;;;;;;;;;;5081729;28;20051;-84
2022/08/15 05:20:34;;;;;;;28.92;18.77;;;;;;;;;;5092499;28;20040;-82
2022/08/15 05:23:03;;;;;;;23.05;18.90;;;;;;;;;;5089755;28;20035;-83
2022/08/15 05:25:30;;;;;;;29.23;18.23;;;;;;;;;;5087182;28;20498;-83
2022/08/15 05:27:56;;;;;;;24.65;19.70;;;;;;;;;;5092568;28;20020;-83
2022/08/15 05:30:22;;;;;;;29.33;19.27;;;;;;;;;;5092322;28;20020;-83
2022/08/15 05:32:49;;;;;;;27.63;19.90;;;;;;;;;;5126055;27;20024;-80
2022/08/15 05:35:15;;;;;;;26.17;19.35;;;;;;;;;;5093013;28;20016;-82
2022/08/15 05:37:44;;;;;;;22.73;18.50;;;;;;;;;;5084565;28;20048;-82
2022/08/15 05:40:10;;;;;;;25.30;18.65;;;;;;;;;;5092452;28;20371;-77
2022/08/15 05:42:53;;;;;;;23.35;18.42;;;;;;;;;;5099510;28;20474;-81
2022/08/15 05:45:26;;;;;;;25.80;18.50;;;;;;;;;;5090926;28;20031;-80
2022/08/15 05:48:03;;;;;;;32.70;19.75;;;;;;;;;;5091478;28;20024;-81
2022/08/15 05:50:32;;;;;;;27.67;18.98;;;;;;;;;;5095503;28;20100;-81
2022/08/15 05:53:04;;;;;;;27.73;19.20;;;;;;;;;;5092258;28;20023;-79
2022/08/15 05:55:33;;;;;;;25.63;18.95;;;;;;;;;;5092444;28;20031;-79
2022/08/15 05:58:05;;;;;;;31.23;19.75;;;;;;;;;;5090757;28;20028;-79
2022/08/15 06:00:33;;;;;;;27.60;18.57;;;;;;;;;;5125354;28;20027;-79
2022/08/15 06:03:03;;;;;;;28.65;17.23;;;;;;;;;;5092135;28;20032;-77
2022/08/15 06:05:32;;;;;;;26.42;17.98;;;;;;;;;;5081942;28;20039;-81
2022/08/15 06:08:00;;;;;;;27.65;18.00;;;;;;;;;;5124328;27;20020;-85
2022/08/15 06:10:26;;;;;;;30.13;19.42;;;;;;;;;;5093030;28;20071;-79
2022/08/15 06:12:54;;;;;;;20.77;16.15;;;;;;;;;;5091321;28;20092;-78
2022/08/15 06:15:21;;;;;;;26.88;20.27;;;;;;;;;;5090021;28;20467;-77
2022/08/15 06:17:50;;;;;;;19.52;15.63;;;;;;;;;;5115086;27;20024;-79
2022/08/15 06:20:19;;;;;;;24.27;15.07;;;;;;;;;;5078018;28;1221607;-78
2022/08/15 06:22:53;;;;;;;18.98;12.27;;;;;;;;;;5091301;28;20047;-77
2022/08/15 06:25:35;;;;;;;15.25;10.25;;;;;;;;;;5090580;28;20028;-78
2022/08/15 06:28:28;;;;;;;16.98;10.27;;;;;;;;;;5092119;28;20028;-79
2022/08/15 06:30:54;;;;;;;16.50;8.50;;;;;;;;;;5068177;28;20121;-77
2022/08/15 06:33:23;;;;;;;14.23;9.32;;;;;;;;;;5090456;28;20298;-79
2022/08/15 06:36:02;;;;;;;11.48;9.32;;;;;;;;;;5087048;28;20066;-78
2022/08/15 06:38:43;;;;;;;13.63;8.38;;;;;;;;;;5091445;28;20402;-77
2022/08/15 06:41:13;;;;;;;13.40;8.20;;;;;;;;;;5090770;28;20097;-77
2022/08/15 06:43:39;;;;;;;12.13;7.75;;;;;;;;;;5124344;27;20024;-78
2022/08/15 06:46:05;;;;;;;9.38;7.70;;;;;;;;;;5090146;28;20016;-79
2022/08/15 06:48:35;;;;;;;12.27;8.40;;;;;;;;;;5091847;28;20066;-79
2022/08/15 06:51:03;;;;;;;9.90;8.32;;;;;;;;;;5085967;28;20095;-78
2022/08/15 06:53:35;;;;;;;9.75;7.85;;;;;;;;;;5091803;28;20020;-78
2022/08/15 06:56:07;;;;;;;9.82;7.10;;;;;;;;;;5090393;28;20491;-77
2022/08/15 06:58:40;;;;;;;8.38;7.57;;;;;;;;;;5089638;28;20024;-78
2022/08/15 07:01:21;;;;;;;11.13;7.45;;;;;;;;;;5090677;28;20118;-78
2022/08/15 07:04:00;;;;;;;11.35;8.57;;;;;;;;;;5099851;28;20395;-79
2022/08/15 07:06:32;;;;;;;22.20;12.70;;;;;;;;;;5090322;28;20035;-79
2022/08/15 07:09:01;;;;;;;42.35;13.82;;;;;;;;;;5091323;28;20022;-76
2022/08/15 07:11:33;;;;;;;38.17;13.82;;;;;;;;;;5091056;28;20024;-77
2022/08/15 07:14:07;;;;;;;25.55;12.90;;;;;;;;;;5082585;28;20020;-77
2022/08/15 07:16:36;;;;;;;22.60;12.45;;;;;;;;;;5094024;28;20031;-77
2022/08/15 07:19:03;;;;;;;19.50;12.50;;;;;;;;;;5096052;28;20085;-79
2022/08/15 07:21:29;;;;;;;17.60;12.85;;;;;;;;;;5091106;28;20134;-78
2022/08/15 07:24:06;;;;;;;18.02;11.68;;;;;;;;;;5089651;28;20024;-78
2022/08/15 07:26:40;;;;;;;21.48;12.05;;;;;;;;;;5080898;28;20070;-76
2022/08/15 07:29:14;;;;;;;19.20;12.18;;;;;;;;;;5089464;28;20031;-79
2022/08/15 07:31:43;;;;;;;11.10;9.98;;;;;;;;;;5124480;27;20020;-79
2022/08/15 07:34:22;;;;;;;11.63;9.25;;;;;;;;;;5090863;28;20040;-77
2022/08/15 07:36:57;;;;;;;13.73;8.88;;;;;;;;;;5090975;28;20024;-78
2022/08/15 07:39:29;;;;;;;14.13;9.13;;;;;;;;;;5090539;28;20451;-76
2022/08/15 07:41:55;;;;;;;11.25;7.55;;;;;;;;;;5123429;27;20032;-78
2022/08/15 07:44:26;;;;;;;11.77;8.32;;;;;;;;;;5089993;28;20024;-78
2022/08/15 07:46:57;;;;;;;10.90;8.30;;;;;;;;;;5090228;28;20505;-76
2022/08/15 07:49:30;;;;;;;12.32;7.18;;;;;;;;;;5084616;28;20020;-79
2022/08/15 07:52:02;;;;;;;9.18;8.02;;;;;;;;;;5108876;27;20545;-80
2022/08/15 07:54:45;;;;;;;10.80;8.52;;;;;;;;;;5080846;28;20478;-79
2022/08/15 07:57:23;;;;;;;55.38;49.60;;;;;;;;;;5085047;28;20042;-80
2022/08/15 08:00:04;;;;;;;18.45;14.63;;;;;;;;;;5090571;28;20063;-77
2022/08/15 08:02:36;;;;;;;10.55;8.50;;;;;;;;;;5090075;28;20383;-78
2022/08/15 08:05:02;;;;;;;10.77;7.97;;;;;;;;;;5089425;28;20020;-81
2022/08/15 08:07:35;;;;;;;32.75;29.30;;;;;;;;;;5082305;28;20090;-80
2022/08/15 08:10:25;;;;;;;10.48;9.07;;;;;;;;;;5118993;27;20032;-80
2022/08/15 08:12:59;;;;;;;14.80;9.23;;;;;;;;;;5077913;28;20522;-79
2022/08/15 08:15:32;;;;;;;9.35;8.02;;;;;;;;;;5087556;28;20039;-79
2022/08/15 08:18:06;;;;;;;11.00;9.50;;;;;;;;;;5083237;28;20517;-79
2022/08/15 08:20:47;;;;;;;8.77;7.38;;;;;;;;;;5079671;28;20495;-81
2022/08/15 08:23:17;;;;;;;17.73;12.80;;;;;;;;;;5086141;28;20043;-80
2022/08/15 08:26:06;;;;;;;78.30;69.75;;;;;;;;;;5085218;28;20016;-79
2022/08/15 08:28:45;;;;;;;22.15;19.75;;;;;;;;;;5036809;28;20086;-78
2022/08/15 08:31:14;;;;;;;35.72;31.58;;;;;;;;;;5081908;28;20039;-78
2022/08/15 08:33:49;;;;;;;20.10;17.98;;;;;;;;;;5092000;28;20529;-77
2022/08/15 08:36:25;;;;;;;9.77;8.70;;;;;;;;;;5088154;28;20019;-79
2022/08/15 08:39:11;;;;;;;13.07;7.65;;;;;;;;;;5091061;28;20081;-81
2022/08/15 08:41:49;;;;;;;10.82;8.25;;;;;;;;;;5119764;27;20032;-80
2022/08/15 08:44:28;;;;;;;14.05;7.97;;;;;;;;;;5082689;28;20437;-79
2022/08/15 08:47:12;;;;;;;55.85;46.35;;;;;;;;;;5097681;28;20034;-80
2022/08/15 08:49:38;;;;;;;14.70;13.15;;;;;;;;;;5089157;28;20382;-78
2022/08/15 08:52:05;;;;;;;10.77;9.50;;;;;;;;;;5089982;28;20360;-77
2022/08/15 08:54:37;;;;;;;8.63;7.45;;;;;;;;;;5123489;27;20094;-79
2022/08/15 08:57:07;;;;;;;10.35;8.57;;;;;;;;;;5077916;28;20046;-80
2022/08/15 08:59:40;;;;;;;31.25;27.90;;;;;;;;;;5089943;28;20395;-79
2022/08/15 09:02:15;;;;;;;37.85;34.00;;;;;;;;;;5080364;28;20033;-80
2022/08/15 09:04:47;;;;;;;20.48;18.33;;;;;;;;;;5076601;28;20118;-79
2022/08/15 09:07:15;;;;;;;16.05;12.70;;;;;;;;;;5083135;28;20020;-81
2022/08/15 09:09:43;;;;;;;23.85;21.33;;;;;;;;;;5094426;28;20077;-83
2022/08/15 09:15:03;;;;;;;17.17;12.93;;;;;;;;;;5093953;28;20034;-80
2022/08/15 09:17:33;;;;;;;32.15;28.83;;;;;;;;;;5087150;28;20031;-82
2022/08/15 09:19:59;;;;;;;11.77;9.88;;;;;;;;;;5105491;28;20020;-80
2022/08/15 09:22:25;;;;;;;9.52;6.65;;;;;;;;;;5094321;28;20083;-82
2022/08/15 09:24:53;;;;;;;8.18;6.15;;;;;;;;;;5095464;28;20071;-82
2022/08/15 09:27:28;;;;;;;15.18;13.68;;;;;;;;;;5094147;28;20024;-83
2022/08/15 09:30:02;;;;;;;9.02;7.03;;;;;;;;;;5116349;27;20074;-80
2022/08/15 09:32:28;;;;;;;10.23;8.45;;;;;;;;;;5092927;28;20032;-77
2022/08/15 09:35:07;;;;;;;17.33;8.45;;;;;;;;;;5093521;28;20016;-78
2022/08/15 09:37:48;;;;;;;12.48;8.57;;;;;;;;;;5091680;28;20031;-77
2022/08/15 09:40:33;;;;;;;10.43;8.63;;;;;;;;;;5125714;27;20383;-79
2022/08/15 09:43:18;;;;;;;10.40;7.93;;;;;;;;;;5087322;28;20164;-77
2022/08/15 09:45:47;;;;;;;7.93;7.13;;;;;;;;;;5100905;28;20075;-81
2022/08/15 09:48:23;;;;;;;12.38;7.75;;;;;;;;;;5095572;28;20035;-83
2022/08/15 09:50:51;;;;;;;8.73;7.53;;;;;;;;;;5095412;28;20424;-81
2022/08/15 09:53:36;;;;;;;9.98;6.60;;;;;;;;;;5083642;28;20101;-79
2022/08/15 09:56:04;;;;;;;12.63;9.23;;;;;;;;;;5086091;28;20103;-78
2022/08/15 09:58:32;;;;;;;10.38;6.70;;;;;;;;;;5087663;28;20020;-79
2022/08/15 10:01:03;;;;;;;7.85;6.78;;;;;;;;;;5089731;28;20027;-80
2022/08/15 10:03:44;;;;;;;9.15;7.30;;;;;;;;;;5092845;28;20097;-78
2022/08/15 10:06:46;;;;;;;12.05;7.90;;;;;;;;;;5119853;27;20105;-77
2022/08/15 10:09:31;;;;;;;9.13;7.03;;;;;;;;;;5030167;28;20044;-79
2022/08/15 10:12:00;;;;;;;7.72;6.57;;;;;;;;;;5086436;28;20040;-78
2022/08/15 10:14:27;;;;;;;10.40;7.85;;;;;;;;;;5090894;28;20058;-82
2022/08/15 10:17:04;;;;;;;11.45;6.88;;;;;;;;;;5092137;28;20012;-78
2022/08/15 10:19:38;;;;;;;8.10;7.30;;;;;;;;;;5121847;27;20032;-79
2022/08/15 10:22:22;;;;;;;9.95;6.68;;;;;;;;;;5089714;28;20737;-81
2022/08/15 10:25:24;;;;;;;9.23;8.15;;;;;;;;;;5085254;28;20038;-78
2022/08/15 10:27:53;;;;;;;7.00;6.30;;;;;;;;;;5032463;28;20083;-82
2022/08/15 10:30:20;;;;;;;7.88;7.18;;;;;;;;;;5091824;28;20055;-83
2022/08/15 10:32:48;;;;;;;8.23;7.05;;;;;;;;;;5093167;28;20012;-81
2022/08/15 10:35:20;;;;;;;15.95;8.02;;;;;;;;;;5093101;28;20013;-82
2022/08/15 10:37:51;;;;;;;8.80;7.90;;;;;;;;;;5094577;28;20027;-82
2022/08/15 10:40:30;;;;;;;12.27;8.57;;;;;;;;;;5092681;28;20020;-83
2022/08/15 10:42:56;;;;;;;7.57;6.82;;;;;;;;;;5078989;28;20110;-85
2022/08/15 10:45:30;;;;;;;9.18;7.90;;;;;;;;;;5125613;27;20052;-81
2022/08/15 10:48:04;;;;;;;12.02;9.30;;;;;;;;;;5086419;28;20024;-82
2022/08/15 10:50:51;;;;;;;7.07;6.32;;;;;;;;;;5082996;28;20031;-81
2022/08/15 10:53:49;;;;;;;9.43;8.43;;;;;;;;;;5086344;28;20032;-83
2022/08/15 10:56:19;;;;;;;8.93;7.35;;;;;;;;;;5054065;28;20081;-78
2022/08/15 10:58:46;;;;;;;9.30;7.78;;;;;;;;;;5084440;28;20028;-83
2022/08/15 11:01:13;;;;;;;10.25;7.05;;;;;;;;;;5090993;28;20020;-80
2022/08/15 11:03:45;;;;;;;12.85;9.60;;;;;;;;;;5089094;28;20089;-81
2022/08/15 11:06:14;;;;;;;8.27;7.47;;;;;;;;;;5078642;28;20039;-78
2022/08/15 11:08:46;;;;;;;20.20;10.77;;;;;;;;;;5087255;28;20016;-77
2022/08/15 11:11:12;;;;;;;10.10;7.82;;;;;;;;;;5089060;28;20020;-78
2022/08/15 11:13:38;;;;;;;9.98;8.95;;;;;;;;;;5086815;28;20032;-78
2022/08/15 11:16:16;;;;;;;11.95;9.65;;;;;;;;;;5088864;28;20030;-78
2022/08/15 11:18:53;;;;;;;20.98;17.92;;;;;;;;;;5099202;28;20024;-77
2022/08/15 11:21:27;;;;;;;13.05;8.77;;;;;;;;;;5102311;28;20044;-77
2022/08/15 11:23:55;;;;;;;16.17;9.15;;;;;;;;;;5087515;28;20031;-75
2022/08/15 11:26:23;;;;;;;12.95;8.40;;;;;;;;;;5119410;27;20023;-78
2022/08/15 11:28:55;;;;;;;18.50;15.50;;;;;;;;;;5089215;28;20500;-77
2022/08/15 11:31:21;;;;;;;20.95;16.08;;;;;;;;;;5082231;28;20024;-81
2022/08/15 11:33:49;;;;;;;20.27;15.52;;;;;;;;;;5082378;28;20060;-79
2022/08/15 11:36:20;;;;;;;13.70;11.80;;;;;;;;;;5099674;28;20067;-75
2022/08/15 11:38:48;;;;;;;14.63;13.13;;;;;;;;;;5085139;28;20024;-76
2022/08/15 11:41:22;;;;;;;38.03;33.22;;;;;;;;;;5114547;27;20119;-77
2022/08/15 11:43:48;;;;;;;19.90;13.48;;;;;;;;;;5101935;28;20028;-78
2022/08/15 11:46:17;;;;;;;35.05;31.13;;;;;;;;;;5083668;28;20016;-78
2022/08/15 11:48:47;;;;;;;11.20;8.80;;;;;;;;;;5083437;28;20020;-80
2022/08/15 11:51:16;;;;;;;12.27;10.60;;;;;;;;;;5087891;28;20085;-76
2022/08/15 11:54:02;;;;;;;9.15;7.65;;;;;;;;;;5085872;28;20032;-77
2022/08/15 11:56:43;;;;;;;9.77;7.32;;;;;;;;;;5088033;28;20028;-77
2022/08/15 11:59:19;;;;;;;11.98;7.70;;;;;;;;;;5080173;28;20025;-78
2022/08/15 12:01:59;;;;;;;8.43;7.53;;;;;;;;;;5084556;28;20052;-77
2022/08/15 12:04:31;;;;;;;8.30;7.50;;;;;;;;;;5085393;28;20050;-75
2022/08/15 12:06:58;;;;;;;9.60;7.10;;;;;;;;;;5120605;28;20024;-77
2022/08/15 12:09:26;;;;;;;9.70;7.78;;;;;;;;;;5088101;28;20032;-76
2022/08/15 12:11:53;;;;;;;9.40;8.13;;;;;;;;;;5088738;28;20039;-77
2022/08/15 12:14:27;;;;;;;33.92;30.27;;;;;;;;;;5086249;28;20050;-76
2022/08/15 12:16:55;;;;;;;32.15;28.83;;;;;;;;;;5083010;28;20106;-77
2022/08/15 12:19:39;;;;;;;9.20;7.95;;;;;;;;;;5080499;28;20123;-75
2022/08/15 12:22:13;;;;;;;15.40;10.68;;;;;;;;;;5077588;28;20189;-78
2022/08/15 12:24:41;;;;;;;10.50;7.75;;;;;;;;;;5085066;28;20016;-78
2022/08/15 12:27:07;;;;;;;26.08;19.15;;;;;;;;;;5083009;28;20444;-78
2022/08/15 12:29:34;;;;;;;12.60;11.23;;;;;;;;;;5087060;28;20016;-76
2022/08/15 12:32:01;;;;;;;15.32;13.68;;;;;;;;;;5088785;28;20016;-76
2022/08/15 12:34:27;;;;;;;15.07;11.93;;;;;;;;;;5085599;28;20031;-77
2022/08/15 12:36:54;;;;;;;7.03;6.32;;;;;;;;;;5089462;28;20008;-77
2022/08/15 12:39:21;;;;;;;16.35;14.68;;;;;;;;;;5091691;28;20065;-79
2022/08/15 12:41:48;;;;;;;9.43;8.52;;;;;;;;;;5088182;28;20020;-76
2022/08/15 12:44:18;;;;;;;10.57;9.52;;;;;;;;;;5084787;28;20020;-79
2022/08/15 12:46:44;;;;;;;37.15;32.47;;;;;;;;;;5080300;28;20028;-78
2022/08/15 12:49:11;;;;;;;10.85;9.68;;;;;;;;;;5090619;28;20016;-79
2022/08/15 12:51:37;;;;;;;9.30;8.07;;;;;;;;;;5087098;28;20028;-77
2022/08/15 12:54:03;;;;;;;10.75;9.65;;;;;;;;;;5089983;28;20069;-76
2022/08/15 12:56:29;;;;;;;5.95;5.32;;;;;;;;;;5087330;28;20078;-77
2022/08/15 12:58:55;;;;;;;6.90;6.10;;;;;;;;;;5086727;28;20114;-76
2022/08/15 13:01:21;;;;;;;6.43;5.82;;;;;;;;;;5090810;28;20043;-74
2022/08/15 13:03:48;;;;;;;10.63;8.70;;;;;;;;;;5121887;27;20081;-77
2022/08/15 13:06:23;;;;;;;11.40;10.20;;;;;;;;;;5092018;28;20054;-76
2022/08/15 13:08:49;;;;;;;20.52;18.67;;;;;;;;;;5092367;28;20020;-75
2022/08/15 13:11:15;;;;;;;10.18;8.57;;;;;;;;;;5083009;28;20012;-75
2022/08/15 13:13:41;;;;;;;10.68;8.73;;;;;;;;;;5092343;28;20052;-76
2022/08/15 13:16:09;;;;;;;9.95;8.90;;;;;;;;;;5092719;28;20028;-79
2022/08/15 13:18:36;;;;;;;5.80;4.43;;;;;;;;;;5076621;28;20017;-77
2022/08/15 13:23:52;;;;;;;9.38;8.48;;;;;;;;;;5089181;28;20101;-78
2022/08/15 13:26:20;;;;;;;11.00;10.02;;;;;;;;;;5088579;28;20027;-80
2022/08/15 13:28:47;;;;;;;7.88;7.00;;;;;;;;;;5081698;28;20032;-79
2022/08/15 13:31:14;;;;;;;7.97;5.82;;;;;;;;;;5090779;28;20504;-79
2022/08/15 13:33:41;;;;;;;11.38;7.25;;;;;;;;;;5125112;27;20066;-77
2022/08/15 13:36:10;;;;;;;9.00;8.20;;;;;;;;;;5092351;28;20390;-77
2022/08/15 13:38:41;;;;;;;14.95;13.43;;;;;;;;;;5083438;28;20396;-79
2022/08/15 13:41:07;;;;;;;11.10;8.40;;;;;;;;;;5091912;28;20020;-76
2022/08/15 13:43:33;;;;;;;6.38;5.78;;;;;;;;;;5082595;28;20296;-75
2022/08/15 13:46:00;;;;;;;9.57;7.50;;;;;;;;;;5087726;28;20055;-75
2022/08/15 13:48:46;;;;;;;10.45;5.20;;;;;;;;;;5105654;28;20053;-76
2022/08/15 13:51:19;;;;;;;9.00;7.10;;;;;;;;;;5091006;28;20020;-77
2022/08/15 13:53:46;;;;;;;6.43;5.20;;;;;;;;;;5124294;27;20038;-76
2022/08/15 13:56:12;;;;;;;7.10;6.40;;;;;;;;;;5091779;28;20099;-79
2022/08/15 13:58:38;;;;;;;11.60;10.45;;;;;;;;;;5090465;28;20036;-75
2022/08/15 14:01:04;;;;;;;14.43;9.95;;;;;;;;;;5083092;28;20021;-75
2022/08/15 14:03:31;;;;;;;7.85;5.75;;;;;;;;;;5092259;28;20123;-76
2022/08/15 14:05:57;;;;;;;6.10;5.28;;;;;;;;;;5124839;27;20031;-76
2022/08/15 14:08:23;;;;;;;9.57;5.88;;;;;;;;;;5083634;28;20029;-78
2022/08/15 14:10:51;;;;;;;8.35;7.55;;;;;;;;;;5091875;28;20027;-77
2022/08/15 14:13:18;;;;;;;8.90;5.22;;;;;;;;;;5092756;28;20038;-80
2022/08/15 14:15:44;;;;;;;10.52;5.78;;;;;;;;;;5088295;28;20055;-79
2022/08/15 14:18:12;;;;;;;8.05;5.80;;;;;;;;;;5090515;28;20472;-79
2022/08/15 14:20:39;;;;;;;8.05;5.72;;;;;;;;;;5091548;28;20064;-77
2022/08/15 14:23:08;;;;;;;14.85;5.82;;;;;;;;;;5090374;28;20085;-78
2022/08/15 14:25:36;;;;;;;10.68;5.75;;;;;;;;;;5119427;27;20024;-76
2022/08/15 14:28:04;;;;;;;24.38;6.28;;;;;;;;;;5080027;28;20407;-76
2022/08/15 14:30:30;;;;;;;15.45;6.00;;;;;;;;;;5124342;27;20111;-77
2022/08/15 14:32:58;;;;;;;12.43;6.65;;;;;;;;;;5091548;28;20065;-77
2022/08/15 14:35:25;;;;;;;10.82;6.07;;;;;;;;;;5091535;28;20189;-77
2022/08/15 14:37:52;;;;;;;13.68;6.18;;;;;;;;;;5090984;28;20442;-76